createdAt,value
2023-03-08T00:00:57.941Z,86.12
2023-03-08T00:06:23.427Z,86.29
2023-03-08T00:11:48.080Z,86.38
2023-03-08T00:17:13.422Z,86.49
2023-03-08T00:22:41.023Z,86.41
2023-03-08T00:28:04.638Z,86.63
2023-03-08T00:33:29.431Z,86.51
2023-03-08T00:38:53.942Z,86.49
2023-03-08T00:44:18.729Z,86.56
2023-03-08T00:49:42.937Z,86.48
2023-03-08T00:55:07.032Z,86.89
2023-03-08T01:00:31.993Z,87.07
2023-03-08T01:05:59.729Z,87.52
2023-03-08T01:11:27.256Z,88.02
2023-03-08T01:16:51.525Z,88.42
2023-03-08T01:22:15.778Z,88.28
2023-03-08T01:27:39.548Z,88.66
2023-03-08T01:33:03.901Z,88.69
2023-03-08T01:38:27.934Z,88.74
2023-03-08T01:43:54.354Z,88.72
2023-03-08T01:49:33.679Z,88.75
2023-03-08T01:55:04.005Z,88.93
2023-03-08T02:00:27.854Z,88.97
2023-03-08T02:05:51.912Z,89.01
2023-03-08T02:11:21.255Z,89.00
2023-03-08T02:16:47.455Z,89.19
2023-03-08T02:22:14.407Z,89.24
2023-03-08T02:27:38.478Z,89.62
2023-03-08T02:33:02.470Z,89.54
2023-03-08T02:38:26.063Z,89.95
2023-03-08T02:43:49.737Z,90.15
2023-03-08T02:49:14.324Z,90.28
2023-03-08T02:54:39.022Z,90.41
2023-03-08T03:00:05.864Z,90.38
2023-03-08T03:05:30.303Z,90.56
2023-03-08T03:10:55.668Z,90.59
2023-03-08T03:16:19.661Z,90.87
2023-03-08T03:21:43.713Z,91.08
2023-03-08T03:27:08.408Z,91.27
2023-03-08T03:32:33.793Z,91.34
2023-03-08T03:37:57.772Z,91.31
2023-03-08T03:43:22.916Z,91.31
2023-03-08T03:48:47.777Z,91.35
2023-03-08T03:54:13.813Z,91.31
2023-03-08T03:59:39.175Z,91.19
2023-03-08T04:05:03.998Z,91.13
2023-03-08T04:10:28.528Z,91.32
2023-03-08T04:15:53.298Z,91.15
2023-03-08T04:21:17.412Z,90.93
2023-03-08T04:26:41.802Z,90.92
2023-03-08T04:32:09.851Z,90.84
2023-03-08T04:37:47.741Z,90.85
2023-03-08T04:43:14.164Z,90.78
2023-03-08T04:48:38.694Z,90.72
2023-03-08T04:54:05.143Z,90.53
2023-03-08T04:59:31.044Z,90.46
2023-03-08T05:04:57.803Z,90.65
2023-03-08T05:10:22.068Z,90.52
2023-03-08T05:15:47.270Z,90.49
2023-03-08T05:21:14.865Z,90.38
2023-03-08T05:26:39.910Z,90.44
2023-03-08T05:32:06.961Z,90.31
2023-03-08T05:37:31.903Z,90.23
2023-03-08T05:42:58.423Z,90.11
2023-03-08T05:48:24.030Z,90.04
2023-03-08T05:53:48.072Z,89.88
2023-03-08T05:59:13.857Z,89.66
2023-03-08T06:04:40.220Z,89.08
2023-03-08T06:10:05.513Z,88.60
2023-03-08T06:15:29.574Z,88.30
2023-03-08T06:21:01.996Z,88.19
2023-03-08T06:26:27.270Z,88.15
2023-03-08T06:31:51.798Z,88.34
2023-03-08T06:37:17.931Z,88.53
2023-03-08T06:42:42.540Z,88.32
2023-03-08T06:48:09.053Z,87.93
2023-03-08T06:53:36.535Z,87.62
2023-03-08T06:59:01.957Z,87.37
2023-03-08T07:04:25.940Z,87.26
2023-03-08T07:09:50.648Z,87.10
2023-03-08T07:15:17.055Z,86.90
2023-03-08T07:20:41.127Z,86.54
2023-03-08T07:26:09.621Z,85.84
2023-03-08T07:31:36.599Z,86.26
2023-03-08T07:37:00.629Z,85.38
2023-03-08T07:42:25.032Z,85.08
2023-03-08T07:47:53.196Z,84.73
2023-03-08T07:53:17.135Z,84.57
2023-03-08T07:58:41.394Z,84.30
2023-03-08T08:04:06.322Z,84.36
2023-03-08T08:09:30.874Z,84.37
2023-03-08T08:14:55.389Z,84.51
2023-03-08T08:20:19.694Z,84.54
2023-03-08T08:25:46.953Z,84.20
2023-03-08T08:31:14.490Z,84.31
2023-03-08T08:36:38.523Z,83.24
2023-03-08T08:42:04.037Z,83.56
2023-03-08T08:47:30.235Z,82.76
2023-03-08T08:52:54.533Z,82.18
2023-03-08T08:58:18.608Z,81.61
2023-03-08T09:03:42.929Z,80.76
2023-03-08T09:09:07.618Z,80.32
2023-03-08T09:14:31.803Z,79.26
2023-03-08T09:19:56.856Z,78.84
2023-03-08T09:25:24.491Z,78.47
2023-03-08T09:30:48.506Z,78.79
2023-03-08T09:36:12.944Z,78.21
2023-03-08T09:41:46.211Z,78.19
2023-03-08T09:47:43.068Z,77.57
2023-03-08T09:53:27.519Z,77.48
2023-03-08T09:59:00.977Z,77.22
2023-03-08T10:04:47.375Z,76.88
2023-03-08T10:10:31.201Z,76.31
2023-03-08T10:16:04.442Z,77.00
2023-03-08T10:21:33.241Z,77.12
2023-03-08T10:27:34.113Z,77.14
2023-03-08T10:33:01.009Z,77.21
2023-03-08T10:38:29.040Z,76.83
2023-03-08T10:43:56.078Z,76.55
2023-03-08T10:49:23.599Z,76.36
2023-03-08T10:54:51.618Z,76.72
2023-03-08T11:00:36.943Z,76.93
2023-03-08T11:06:05.270Z,76.75
2023-03-08T11:11:29.281Z,76.51
2023-03-08T11:17:07.245Z,76.69
2023-03-08T11:22:55.709Z,76.76
2023-03-08T11:28:39.705Z,76.78
2023-03-08T11:34:29.686Z,77.21
2023-03-08T11:40:15.506Z,76.87
2023-03-08T11:46:06.916Z,77.10
2023-03-08T11:52:00.276Z,77.87
2023-03-08T11:57:26.769Z,78.01
2023-03-08T12:02:51.681Z,78.15
2023-03-08T12:08:24.850Z,78.25
2023-03-08T12:13:55.584Z,78.52
2023-03-08T12:19:46.572Z,79.19
2023-03-08T12:25:33.755Z,79.15
2023-03-08T12:31:04.114Z,79.35
2023-03-08T12:36:39.764Z,79.96
2023-03-08T12:42:10.435Z,79.95
2023-03-08T12:47:34.979Z,80.49
2023-03-08T12:52:59.184Z,80.60
2023-03-08T12:58:23.167Z,81.16
2023-03-08T13:03:47.156Z,81.50
2023-03-08T13:09:43.407Z,81.70
2023-03-08T13:15:14.270Z,81.92
2023-03-08T13:20:42.421Z,82.54
2023-03-08T13:26:49.303Z,82.26
2023-03-08T13:32:20.142Z,82.18
2023-03-08T13:37:52.908Z,82.53
2023-03-08T13:43:16.930Z,82.77
2023-03-08T13:48:45.042Z,82.94
2023-03-08T13:54:16.810Z,83.38
2023-03-08T13:59:49.474Z,83.48
2023-03-08T14:05:18.228Z,83.64
2023-03-08T14:10:45.987Z,84.19
2023-03-08T14:16:24.999Z,84.32
2023-03-08T14:21:55.199Z,84.36
2023-03-08T14:27:19.858Z,84.08
2023-03-08T14:33:02.375Z,84.30
2023-03-08T14:38:31.743Z,83.99
2023-03-08T14:43:55.573Z,84.29
2023-03-08T14:49:24.223Z,84.82
2023-03-08T14:54:49.380Z,85.10
2023-03-08T15:00:16.020Z,85.13
2023-03-08T15:05:40.408Z,85.45
2023-03-08T15:11:04.532Z,85.32
2023-03-08T15:16:28.609Z,85.70
2023-03-08T15:21:53.477Z,85.72
2023-03-08T15:27:18.098Z,85.80
2023-03-08T15:32:43.094Z,85.71
2023-03-08T15:38:08.271Z,85.62
2023-03-08T15:43:33.700Z,85.80
2023-03-08T15:48:58.397Z,85.92
2023-03-08T15:54:22.529Z,85.79
2023-03-08T15:59:47.058Z,86.21
2023-03-08T16:05:14.100Z,85.71
2023-03-08T16:10:41.605Z,85.97
2023-03-08T16:16:07.017Z,86.10
2023-03-08T16:21:31.385Z,86.54
2023-03-08T16:26:56.120Z,86.57
2023-03-08T16:32:20.971Z,86.56
2023-03-08T16:37:45.264Z,86.78
2023-03-08T16:43:09.141Z,87.27
2023-03-08T16:48:33.739Z,87.50
2023-03-08T16:53:58.398Z,87.84
2023-03-08T16:59:22.768Z,88.26
2023-03-08T17:04:49.087Z,88.25
2023-03-08T17:10:13.630Z,88.56
2023-03-08T17:15:43.324Z,88.65
2023-03-08T17:21:07.760Z,88.79
2023-03-08T17:26:31.681Z,88.80
2023-03-08T17:31:57.078Z,88.94
2023-03-08T17:37:23.532Z,89.39
2023-03-08T17:42:48.462Z,89.59
2023-03-08T17:48:12.383Z,90.01
2023-03-08T17:53:38.028Z,90.02
2023-03-08T17:59:03.098Z,90.56
2023-03-08T18:04:26.965Z,90.47
2023-03-08T18:09:52.226Z,90.52
2023-03-08T18:15:16.638Z,90.24
2023-03-08T18:20:41.031Z,90.04
2023-03-08T18:26:05.269Z,90.10
2023-03-08T18:31:31.294Z,89.71
2023-03-08T18:36:59.094Z,90.09
2023-03-08T18:42:24.506Z,89.91
2023-03-08T18:47:51.173Z,89.88
2023-03-08T18:53:18.870Z,89.91
2023-03-08T18:58:43.064Z,89.61
2023-03-08T19:04:08.427Z,89.20
2023-03-08T19:09:32.406Z,89.16
2023-03-08T19:14:57.008Z,89.72
2023-03-08T19:20:21.396Z,89.90
2023-03-08T19:26:04.058Z,89.92
2023-03-08T19:31:29.085Z,89.96
2023-03-08T19:36:53.772Z,89.65
2023-03-08T19:42:18.051Z,89.77
2023-03-08T19:47:43.617Z,89.95
2023-03-08T19:53:09.421Z,90.16
2023-03-08T19:58:34.416Z,89.80
2023-03-08T20:03:58.852Z,89.91
2023-03-08T20:09:24.146Z,90.08
2023-03-08T20:14:48.653Z,90.15
2023-03-08T20:20:14.926Z,89.58
2023-03-08T20:25:42.999Z,89.82
2023-03-08T20:31:11.592Z,89.62
2023-03-08T20:36:36.370Z,89.69
2023-03-08T20:42:00.904Z,89.33
2023-03-08T20:47:24.895Z,89.26
2023-03-08T20:52:50.013Z,89.60
2023-03-08T20:58:14.931Z,89.70
2023-03-08T21:03:39.193Z,89.70
2023-03-08T21:09:03.423Z,89.89
2023-03-08T21:14:29.328Z,89.93
2023-03-08T21:19:54.481Z,89.97
2023-03-08T21:25:19.443Z,89.82
2023-03-08T21:30:44.475Z,90.04
2023-03-08T21:36:09.026Z,90.07
2023-03-08T21:41:36.044Z,90.14
2023-03-08T21:47:00.395Z,90.40
2023-03-08T21:52:24.963Z,90.30
2023-03-08T21:57:49.979Z,90.53
2023-03-08T22:03:14.388Z,90.59
2023-03-08T22:08:39.052Z,90.54
2023-03-08T22:14:02.906Z,90.70
2023-03-08T22:19:27.313Z,90.76
2023-03-08T22:24:51.784Z,90.57
2023-03-08T22:30:17.245Z,89.92
2023-03-08T22:35:48.718Z,90.39
2023-03-08T22:41:15.185Z,90.25
2023-03-08T22:46:39.422Z,89.72
2023-03-08T22:52:04.916Z,89.42
2023-03-08T22:57:29.020Z,89.73
2023-03-08T23:02:57.958Z,89.73
2023-03-08T23:08:24.277Z,90.00
2023-03-08T23:13:48.838Z,90.60
2023-03-08T23:19:16.193Z,90.41
2023-03-08T23:25:23.500Z,90.44
2023-03-08T23:30:48.312Z,90.25
2023-03-08T23:36:14.409Z,90.49
2023-03-08T23:41:40.987Z,90.66
2023-03-08T23:47:05.864Z,90.74
2023-03-08T23:52:29.817Z,90.27
2023-03-08T23:57:53.656Z,90.19
